sensor_id;sensor_type;location;lat;lon;timestamp;temperature;humidity
2751;DHT22;1383;48.362;10.908;2022-10-30T00:00:39;13.30;91.40
2751;DHT22;1383;48.362;10.908;2022-10-30T00:03:12;13.30;91.50
2751;DHT22;1383;48.362;10.908;2022-10-30T00:05:43;13.30;91.60
2751;DHT22;1383;48.362;10.908;2022-10-30T00:08:11;13.30;91.70
2751;DHT22;1383;48.362;10.908;2022-10-30T00:10:39;13.20;91.80
2751;DHT22;1383;48.362;10.908;2022-10-30T00:13:07;13.10;91.70
2751;DHT22;1383;48.362;10.908;2022-10-30T00:15:34;13.10;92.40
2751;DHT22;1383;48.362;10.908;2022-10-30T00:18:01;13.10;92.30
2751;DHT22;1383;48.362;10.908;2022-10-30T00:20:28;13.10;91.90
2751;DHT22;1383;48.362;10.908;2022-10-30T00:22:55;13.10;91.70
2751;DHT22;1383;48.362;10.908;2022-10-30T00:25:22;13.20;91.60
2751;DHT22;1383;48.362;10.908;2022-10-30T00:27:49;13.20;91.50
2751;DHT22;1383;48.362;10.908;2022-10-30T00:30:16;13.20;91.40
2751;DHT22;1383;48.362;10.908;2022-10-30T00:32:44;13.20;90.80
2751;DHT22;1383;48.362;10.908;2022-10-30T00:35:11;13.10;90.50
2751;DHT22;1383;48.362;10.908;2022-10-30T00:37:38;13.10;90.40
2751;DHT22;1383;48.362;10.908;2022-10-30T00:40:05;12.80;90.40
2751;DHT22;1383;48.362;10.908;2022-10-30T00:42:32;12.80;91.30
2751;DHT22;1383;48.362;10.908;2022-10-30T00:44:59;12.80;91.50
2751;DHT22;1383;48.362;10.908;2022-10-30T00:47:38;12.90;91.50
2751;DHT22;1383;48.362;10.908;2022-10-30T00:50:16;12.80;91.30
2751;DHT22;1383;48.362;10.908;2022-10-30T00:53:06;12.80;91.10
2751;DHT22;1383;48.362;10.908;2022-10-30T00:55:54;12.80;91.20
2751;DHT22;1383;48.362;10.908;2022-10-30T00:58:31;12.80;90.70
2751;DHT22;1383;48.362;10.908;2022-10-30T01:01:01;12.70;90.80
2751;DHT22;1383;48.362;10.908;2022-10-30T01:03:29;12.60;91.10
2751;DHT22;1383;48.362;10.908;2022-10-30T01:06:00;12.60;91.50
2751;DHT22;1383;48.362;10.908;2022-10-30T01:08:28;12.50;91.30
2751;DHT22;1383;48.362;10.908;2022-10-30T01:10:57;12.50;91.80
2751;DHT22;1383;48.362;10.908;2022-10-30T01:13:24;12.40;91.90
2751;DHT22;1383;48.362;10.908;2022-10-30T01:25:08;12.40;92.40
2751;DHT22;1383;48.362;10.908;2022-10-30T01:35:19;12.20;92.70
2751;DHT22;1383;48.362;10.908;2022-10-30T01:37:50;12.20;92.50
2751;DHT22;1383;48.362;10.908;2022-10-30T01:40:18;12.10;92.30
2751;DHT22;1383;48.362;10.908;2022-10-30T01:42:54;12.20;92.30
2751;DHT22;1383;48.362;10.908;2022-10-30T01:59:35;12.20;92.40
2751;DHT22;1383;48.362;10.908;2022-10-30T02:02:02;12.30;92.30
2751;DHT22;1383;48.362;10.908;2022-10-30T02:04:30;12.30;91.80
2751;DHT22;1383;48.362;10.908;2022-10-30T02:06:57;12.20;91.40
2751;DHT22;1383;48.362;10.908;2022-10-30T02:09:24;12.20;91.00
2751;DHT22;1383;48.362;10.908;2022-10-30T02:11:52;12.20;90.80
2751;DHT22;1383;48.362;10.908;2022-10-30T02:14:30;12.20;90.70
2751;DHT22;1383;48.362;10.908;2022-10-30T02:17:00;12.00;90.60
2751;DHT22;1383;48.362;10.908;2022-10-30T02:19:28;11.90;91.40
2751;DHT22;1383;48.362;10.908;2022-10-30T02:21:55;11.90;91.60
2751;DHT22;1383;48.362;10.908;2022-10-30T02:24:21;11.90;91.40
2751;DHT22;1383;48.362;10.908;2022-10-30T02:26:48;11.90;91.10
2751;DHT22;1383;48.362;10.908;2022-10-30T02:29:15;11.80;91.10
2751;DHT22;1383;48.362;10.908;2022-10-30T02:31:46;11.80;91.40
2751;DHT22;1383;48.362;10.908;2022-10-30T02:34:13;11.80;91.40
2751;DHT22;1383;48.362;10.908;2022-10-30T02:36:40;11.70;91.50
2751;DHT22;1383;48.362;10.908;2022-10-30T02:39:07;11.60;92.00
2751;DHT22;1383;48.362;10.908;2022-10-30T02:41:34;11.60;92.10
2751;DHT22;1383;48.362;10.908;2022-10-30T02:44:01;11.60;91.90
2751;DHT22;1383;48.362;10.908;2022-10-30T02:46:28;11.60;91.80
2751;DHT22;1383;48.362;10.908;2022-10-30T02:48:55;11.60;92.10
2751;DHT22;1383;48.362;10.908;2022-10-30T02:51:22;11.60;92.10
2751;DHT22;1383;48.362;10.908;2022-10-30T02:53:49;11.60;92.30
2751;DHT22;1383;48.362;10.908;2022-10-30T02:56:16;11.70;91.80
2751;DHT22;1383;48.362;10.908;2022-10-30T02:58:43;11.70;91.40
2751;DHT22;1383;48.362;10.908;2022-10-30T03:01:12;11.70;91.30
2751;DHT22;1383;48.362;10.908;2022-10-30T03:03:40;11.80;91.00
2751;DHT22;1383;48.362;10.908;2022-10-30T03:06:09;11.80;90.50
2751;DHT22;1383;48.362;10.908;2022-10-30T03:08:36;11.90;90.30
2751;DHT22;1383;48.362;10.908;2022-10-30T03:11:06;11.90;89.90
2751;DHT22;1383;48.362;10.908;2022-10-30T03:13:34;11.90;88.70
2751;DHT22;1383;48.362;10.908;2022-10-30T03:16:03;11.90;88.70
2751;DHT22;1383;48.362;10.908;2022-10-30T03:18:31;11.80;87.80
2751;DHT22;1383;48.362;10.908;2022-10-30T03:20:59;11.70;88.40
2751;DHT22;1383;48.362;10.908;2022-10-30T03:23:27;11.60;89.20
2751;DHT22;1383;48.362;10.908;2022-10-30T03:25:56;11.60;89.50
2751;DHT22;1383;48.362;10.908;2022-10-30T03:28:24;11.60;89.30
2751;DHT22;1383;48.362;10.908;2022-10-30T03:30:57;11.60;89.70
2751;DHT22;1383;48.362;10.908;2022-10-30T03:33:24;11.50;90.00
2751;DHT22;1383;48.362;10.908;2022-10-30T03:35:51;11.50;89.70
2751;DHT22;1383;48.362;10.908;2022-10-30T03:38:18;11.50;90.00
2751;DHT22;1383;48.362;10.908;2022-10-30T03:40:45;11.50;90.00
2751;DHT22;1383;48.362;10.908;2022-10-30T03:43:11;11.40;90.00
2751;DHT22;1383;48.362;10.908;2022-10-30T03:45:38;11.40;90.10
2751;DHT22;1383;48.362;10.908;2022-10-30T03:48:05;11.50;90.10
2751;DHT22;1383;48.362;10.908;2022-10-30T03:50:32;11.50;90.10
2751;DHT22;1383;48.362;10.908;2022-10-30T03:52:59;11.50;89.30
2751;DHT22;1383;48.362;10.908;2022-10-30T03:55:25;11.50;89.00
2751;DHT22;1383;48.362;10.908;2022-10-30T03:57:52;11.50;88.50
2751;DHT22;1383;48.362;10.908;2022-10-30T04:00:19;11.50;88.70
2751;DHT22;1383;48.362;10.908;2022-10-30T04:02:47;11.50;88.30
2751;DHT22;1383;48.362;10.908;2022-10-30T04:05:17;11.40;88.50
2751;DHT22;1383;48.362;10.908;2022-10-30T04:07:44;11.50;88.50
2751;DHT22;1383;48.362;10.908;2022-10-30T04:10:12;11.50;88.30
2751;DHT22;1383;48.362;10.908;2022-10-30T04:12:42;11.50;87.10
2751;DHT22;1383;48.362;10.908;2022-10-30T04:15:08;11.40;85.90
2751;DHT22;1383;48.362;10.908;2022-10-30T04:17:35;11.20;85.60
2751;DHT22;1383;48.362;10.908;2022-10-30T04:20:02;11.10;87.30
2751;DHT22;1383;48.362;10.908;2022-10-30T04:22:29;11.10;87.90
2751;DHT22;1383;48.362;10.908;2022-10-30T04:24:56;10.90;88.50
2751;DHT22;1383;48.362;10.908;2022-10-30T04:27:23;10.80;89.00
2751;DHT22;1383;48.362;10.908;2022-10-30T04:29:49;10.70;90.10
2751;DHT22;1383;48.362;10.908;2022-10-30T04:32:16;10.60;90.70
2751;DHT22;1383;48.362;10.908;2022-10-30T04:34:43;10.60;91.60
2751;DHT22;1383;48.362;10.908;2022-10-30T04:37:10;10.60;91.50
2751;DHT22;1383;48.362;10.908;2022-10-30T04:39:37;10.60;91.60
2751;DHT22;1383;48.362;10.908;2022-10-30T04:42:10;10.70;91.60
2751;DHT22;1383;48.362;10.908;2022-10-30T04:44:37;10.70;91.30
2751;DHT22;1383;48.362;10.908;2022-10-30T04:47:04;10.80;90.80
2751;DHT22;1383;48.362;10.908;2022-10-30T04:49:31;10.90;90.70
2751;DHT22;1383;48.362;10.908;2022-10-30T04:51:57;10.90;90.50
2751;DHT22;1383;48.362;10.908;2022-10-30T04:54:24;11.00;90.00
2751;DHT22;1383;48.362;10.908;2022-10-30T04:56:51;11.10;89.30
2751;DHT22;1383;48.362;10.908;2022-10-30T04:59:18;11.00;88.10
2751;DHT22;1383;48.362;10.908;2022-10-30T05:01:45;11.00;87.80
2751;DHT22;1383;48.362;10.908;2022-10-30T05:04:12;11.10;87.60
2751;DHT22;1383;48.362;10.908;2022-10-30T05:06:38;11.10;86.90
2751;DHT22;1383;48.362;10.908;2022-10-30T05:09:05;11.10;86.50
2751;DHT22;1383;48.362;10.908;2022-10-30T05:11:32;11.10;86.00
2751;DHT22;1383;48.362;10.908;2022-10-30T05:13:58;11.10;85.60
2751;DHT22;1383;48.362;10.908;2022-10-30T05:16:25;11.10;84.80
2751;DHT22;1383;48.362;10.908;2022-10-30T05:18:52;11.00;84.80
2751;DHT22;1383;48.362;10.908;2022-10-30T05:21:18;11.10;84.50
2751;DHT22;1383;48.362;10.908;2022-10-30T05:23:45;11.00;84.20
2751;DHT22;1383;48.362;10.908;2022-10-30T05:26:12;11.00;84.50
2751;DHT22;1383;48.362;10.908;2022-10-30T05:28:39;10.90;84.30
2751;DHT22;1383;48.362;10.908;2022-10-30T05:31:07;10.90;85.10
2751;DHT22;1383;48.362;10.908;2022-10-30T05:33:33;11.00;85.50
2751;DHT22;1383;48.362;10.908;2022-10-30T05:36:00;10.90;85.00
2751;DHT22;1383;48.362;10.908;2022-10-30T05:38:27;10.90;85.40
2751;DHT22;1383;48.362;10.908;2022-10-30T05:40:54;10.90;85.70
2751;DHT22;1383;48.362;10.908;2022-10-30T05:43:20;11.00;85.60
2751;DHT22;1383;48.362;10.908;2022-10-30T05:45:50;11.10;85.50
2751;DHT22;1383;48.362;10.908;2022-10-30T05:48:17;11.10;84.50
2751;DHT22;1383;48.362;10.908;2022-10-30T05:50:44;11.00;83.60
2751;DHT22;1383;48.362;10.908;2022-10-30T05:53:10;11.00;84.20
2751;DHT22;1383;48.362;10.908;2022-10-30T05:55:37;11.00;84.30
2751;DHT22;1383;48.362;10.908;2022-10-30T05:58:05;10.90;84.90
2751;DHT22;1383;48.362;10.908;2022-10-30T06:00:34;11.00;85.30
2751;DHT22;1383;48.362;10.908;2022-10-30T06:03:01;11.00;84.90
2751;DHT22;1383;48.362;10.908;2022-10-30T06:05:31;11.10;84.80
2751;DHT22;1383;48.362;10.908;2022-10-30T06:07:59;11.00;84.30
2751;DHT22;1383;48.362;10.908;2022-10-30T06:10:26;11.00;83.60
2751;DHT22;1383;48.362;10.908;2022-10-30T06:13:01;10.90;84.50
2751;DHT22;1383;48.362;10.908;2022-10-30T06:15:29;10.90;84.40
2751;DHT22;1383;48.362;10.908;2022-10-30T06:17:56;10.90;84.70
2751;DHT22;1383;48.362;10.908;2022-10-30T06:20:26;10.90;85.10
2751;DHT22;1383;48.362;10.908;2022-10-30T06:23:01;10.90;84.50
2751;DHT22;1383;48.362;10.908;2022-10-30T06:25:30;10.80;84.80
2751;DHT22;1383;48.362;10.908;2022-10-30T06:28:05;10.80;86.00
2751;DHT22;1383;48.362;10.908;2022-10-30T06:30:32;11.00;86.00
2751;DHT22;1383;48.362;10.908;2022-10-30T06:33:00;11.10;85.00
2751;DHT22;1383;48.362;10.908;2022-10-30T06:35:28;11.20;83.80
2751;DHT22;1383;48.362;10.908;2022-10-30T06:37:56;11.30;82.70
2751;DHT22;1383;48.362;10.908;2022-10-30T06:40:26;11.40;81.70
2751;DHT22;1383;48.362;10.908;2022-10-30T06:42:58;11.50;80.60
2751;DHT22;1383;48.362;10.908;2022-10-30T06:45:26;11.60;79.60
2751;DHT22;1383;48.362;10.908;2022-10-30T06:47:53;11.70;78.80
2751;DHT22;1383;48.362;10.908;2022-10-30T06:50:21;11.80;77.50
2751;DHT22;1383;48.362;10.908;2022-10-30T06:52:47;11.90;77.30
2751;DHT22;1383;48.362;10.908;2022-10-30T06:55:15;12.00;76.20
2751;DHT22;1383;48.362;10.908;2022-10-30T06:57:42;11.90;75.40
2751;DHT22;1383;48.362;10.908;2022-10-30T07:00:09;12.00;75.60
2751;DHT22;1383;48.362;10.908;2022-10-30T07:02:36;12.00;75.60
2751;DHT22;1383;48.362;10.908;2022-10-30T07:05:03;12.10;75.90
2751;DHT22;1383;48.362;10.908;2022-10-30T07:07:30;12.20;75.60
2751;DHT22;1383;48.362;10.908;2022-10-30T07:09:57;12.30;75.40
2751;DHT22;1383;48.362;10.908;2022-10-30T07:12:23;12.40;75.10
2751;DHT22;1383;48.362;10.908;2022-10-30T07:14:50;12.60;75.50
2751;DHT22;1383;48.362;10.908;2022-10-30T07:17:17;12.90;74.80
2751;DHT22;1383;48.362;10.908;2022-10-30T07:19:44;13.10;72.60
2751;DHT22;1383;48.362;10.908;2022-10-30T07:22:10;13.20;70.00
2751;DHT22;1383;48.362;10.908;2022-10-30T07:24:37;13.20;68.20
2751;DHT22;1383;48.362;10.908;2022-10-30T07:27:04;13.30;67.40
2751;DHT22;1383;48.362;10.908;2022-10-30T07:29:31;13.50;67.50
2751;DHT22;1383;48.362;10.908;2022-10-30T07:31:57;13.70;66.50
2751;DHT22;1383;48.362;10.908;2022-10-30T07:34:29;13.90;66.30
2751;DHT22;1383;48.362;10.908;2022-10-30T07:36:56;14.00;65.70
2751;DHT22;1383;48.362;10.908;2022-10-30T07:39:23;14.20;64.20
2751;DHT22;1383;48.362;10.908;2022-10-30T07:41:49;14.40;62.50
2751;DHT22;1383;48.362;10.908;2022-10-30T07:44:16;14.60;62.10
2751;DHT22;1383;48.362;10.908;2022-10-30T07:46:43;15.00;60.80
2751;DHT22;1383;48.362;10.908;2022-10-30T07:49:10;15.30;59.30
2751;DHT22;1383;48.362;10.908;2022-10-30T07:51:37;15.40;57.30
2751;DHT22;1383;48.362;10.908;2022-10-30T07:54:04;15.60;56.50
2751;DHT22;1383;48.362;10.908;2022-10-30T07:56:30;15.70;54.80
2751;DHT22;1383;48.362;10.908;2022-10-30T07:58:57;15.80;54.20
2751;DHT22;1383;48.362;10.908;2022-10-30T08:01:24;16.00;54.10
2751;DHT22;1383;48.362;10.908;2022-10-30T08:03:51;16.20;53.60
2751;DHT22;1383;48.362;10.908;2022-10-30T08:06:18;16.30;51.80
2751;DHT22;1383;48.362;10.908;2022-10-30T08:08:51;16.40;52.00
2751;DHT22;1383;48.362;10.908;2022-10-30T08:11:18;16.50;50.80
2751;DHT22;1383;48.362;10.908;2022-10-30T08:13:45;16.50;51.00
2751;DHT22;1383;48.362;10.908;2022-10-30T08:16:12;16.60;50.60
2751;DHT22;1383;48.362;10.908;2022-10-30T08:18:40;16.80;50.80
2751;DHT22;1383;48.362;10.908;2022-10-30T08:21:08;17.00;49.30
2751;DHT22;1383;48.362;10.908;2022-10-30T08:23:35;17.00;48.50
2751;DHT22;1383;48.362;10.908;2022-10-30T08:26:02;16.80;49.20
2751;DHT22;1383;48.362;10.908;2022-10-30T08:28:30;16.80;49.70
2751;DHT22;1383;48.362;10.908;2022-10-30T08:30:59;16.90;50.10
2751;DHT22;1383;48.362;10.908;2022-10-30T08:33:26;17.00;49.60
2751;DHT22;1383;48.362;10.908;2022-10-30T08:35:56;17.20;50.00
2751;DHT22;1383;48.362;10.908;2022-10-30T08:38:25;17.30;49.50
2751;DHT22;1383;48.362;10.908;2022-10-30T08:40:52;17.50;48.90
2751;DHT22;1383;48.362;10.908;2022-10-30T08:43:19;17.50;46.20
2751;DHT22;1383;48.362;10.908;2022-10-30T08:45:46;17.60;47.30
2751;DHT22;1383;48.362;10.908;2022-10-30T08:48:14;17.70;47.30
2751;DHT22;1383;48.362;10.908;2022-10-30T08:50:41;17.70;47.40
2751;DHT22;1383;48.362;10.908;2022-10-30T08:53:12;17.80;46.20
2751;DHT22;1383;48.362;10.908;2022-10-30T08:55:40;17.90;45.80
2751;DHT22;1383;48.362;10.908;2022-10-30T08:58:06;17.90;45.20
2751;DHT22;1383;48.362;10.908;2022-10-30T09:00:33;18.00;45.50
2751;DHT22;1383;48.362;10.908;2022-10-30T09:03:01;18.10;45.30
2751;DHT22;1383;48.362;10.908;2022-10-30T09:05:28;18.20;45.00
2751;DHT22;1383;48.362;10.908;2022-10-30T09:07:56;18.10;45.10
2751;DHT22;1383;48.362;10.908;2022-10-30T09:10:25;18.10;45.50
2751;DHT22;1383;48.362;10.908;2022-10-30T09:12:56;18.10;45.80
2751;DHT22;1383;48.362;10.908;2022-10-30T09:15:25;18.30;45.90
2751;DHT22;1383;48.362;10.908;2022-10-30T09:17:56;18.40;46.00
2751;DHT22;1383;48.362;10.908;2022-10-30T09:20:24;18.50;46.10
2751;DHT22;1383;48.362;10.908;2022-10-30T09:22:51;18.60;45.10
2751;DHT22;1383;48.362;10.908;2022-10-30T09:25:18;18.70;44.60
2751;DHT22;1383;48.362;10.908;2022-10-30T09:27:45;18.80;43.10
2751;DHT22;1383;48.362;10.908;2022-10-30T09:30:13;19.00;42.30
2751;DHT22;1383;48.362;10.908;2022-10-30T09:32:40;19.20;42.40
2751;DHT22;1383;48.362;10.908;2022-10-30T09:35:07;19.50;41.40
2751;DHT22;1383;48.362;10.908;2022-10-30T09:37:37;19.80;41.50
2751;DHT22;1383;48.362;10.908;2022-10-30T09:40:06;20.10;40.40
2751;DHT22;1383;48.362;10.908;2022-10-30T09:42:44;20.40;41.00
2751;DHT22;1383;48.362;10.908;2022-10-30T09:45:38;20.70;39.80
2751;DHT22;1383;48.362;10.908;2022-10-30T10:00:10;22.60;34.80
2751;DHT22;1383;48.362;10.908;2022-10-30T10:02:50;22.80;34.60
2751;DHT22;1383;48.362;10.908;2022-10-30T10:05:25;23.00;32.60
2751;DHT22;1383;48.362;10.908;2022-10-30T10:08:00;23.00;33.00
2751;DHT22;1383;48.362;10.908;2022-10-30T10:10:41;23.00;33.70
2751;DHT22;1383;48.362;10.908;2022-10-30T10:13:21;23.20;33.90
2751;DHT22;1383;48.362;10.908;2022-10-30T10:15:53;23.40;32.90
2751;DHT22;1383;48.362;10.908;2022-10-30T10:18:25;23.60;32.10
2751;DHT22;1383;48.362;10.908;2022-10-30T10:20:58;23.80;32.00
2751;DHT22;1383;48.362;10.908;2022-10-30T10:23:32;24.00;32.10
2751;DHT22;1383;48.362;10.908;2022-10-30T10:26:09;24.10;30.40
2751;DHT22;1383;48.362;10.908;2022-10-30T10:31:51;24.10;30.50
2751;DHT22;1383;48.362;10.908;2022-10-30T10:34:47;24.00;30.60
2751;DHT22;1383;48.362;10.908;2022-10-30T10:48:51;23.30;32.70
2751;DHT22;1383;48.362;10.908;2022-10-30T10:51:26;23.10;32.90
2751;DHT22;1383;48.362;10.908;2022-10-30T10:53:59;23.00;32.90
2751;DHT22;1383;48.362;10.908;2022-10-30T10:56:33;22.90;33.40
2751;DHT22;1383;48.362;10.908;2022-10-30T10:59:03;22.80;34.00
2751;DHT22;1383;48.362;10.908;2022-10-30T11:01:44;22.50;34.20
2751;DHT22;1383;48.362;10.908;2022-10-30T11:04:38;22.40;34.60
2751;DHT22;1383;48.362;10.908;2022-10-30T11:07:23;22.40;34.90
2751;DHT22;1383;48.362;10.908;2022-10-30T11:09:52;22.30;35.20
2751;DHT22;1383;48.362;10.908;2022-10-30T11:12:24;22.20;34.90
2751;DHT22;1383;48.362;10.908;2022-10-30T11:14:57;22.10;35.50
2751;DHT22;1383;48.362;10.908;2022-10-30T11:17:38;21.90;36.10
2751;DHT22;1383;48.362;10.908;2022-10-30T11:20:32;21.80;36.20
2751;DHT22;1383;48.362;10.908;2022-10-30T11:23:01;21.80;36.30
2751;DHT22;1383;48.362;10.908;2022-10-30T11:25:34;21.70;36.00
2751;DHT22;1383;48.362;10.908;2022-10-30T11:28:04;21.60;36.00
2751;DHT22;1383;48.362;10.908;2022-10-30T11:30:31;21.60;36.00
2751;DHT22;1383;48.362;10.908;2022-10-30T11:32:59;21.60;36.20
2751;DHT22;1383;48.362;10.908;2022-10-30T11:35:45;21.60;36.30
2751;DHT22;1383;48.362;10.908;2022-10-30T11:38:18;21.60;36.40
2751;DHT22;1383;48.362;10.908;2022-10-30T11:40:50;21.70;36.20
2751;DHT22;1383;48.362;10.908;2022-10-30T11:43:21;21.60;36.70
2751;DHT22;1383;48.362;10.908;2022-10-30T11:45:49;21.70;37.10
2751;DHT22;1383;48.362;10.908;2022-10-30T11:48:26;21.70;36.10
2751;DHT22;1383;48.362;10.908;2022-10-30T11:50:59;21.70;36.90
2751;DHT22;1383;48.362;10.908;2022-10-30T11:53:30;21.70;36.20
2751;DHT22;1383;48.362;10.908;2022-10-30T11:56:01;21.70;35.70
2751;DHT22;1383;48.362;10.908;2022-10-30T11:58:37;21.70;35.10
2751;DHT22;1383;48.362;10.908;2022-10-30T12:01:26;21.80;34.90
2751;DHT22;1383;48.362;10.908;2022-10-30T12:03:54;21.80;34.90
2751;DHT22;1383;48.362;10.908;2022-10-30T12:09:21;21.80;34.60
2751;DHT22;1383;48.362;10.908;2022-10-30T12:11:48;21.80;35.00
2751;DHT22;1383;48.362;10.908;2022-10-30T12:14:20;21.80;35.00
2751;DHT22;1383;48.362;10.908;2022-10-30T12:16:50;21.80;35.30
2751;DHT22;1383;48.362;10.908;2022-10-30T12:19:20;21.80;35.80
2751;DHT22;1383;48.362;10.908;2022-10-30T12:21:52;21.70;36.20
2751;DHT22;1383;48.362;10.908;2022-10-30T12:24:29;21.70;36.40
2751;DHT22;1383;48.362;10.908;2022-10-30T12:27:01;21.80;36.30
2751;DHT22;1383;48.362;10.908;2022-10-30T12:32:48;21.80;36.40
2751;DHT22;1383;48.362;10.908;2022-10-30T12:35:57;21.80;36.40
2751;DHT22;1383;48.362;10.908;2022-10-30T12:43:33;21.80;35.00
2751;DHT22;1383;48.362;10.908;2022-10-30T12:46:29;21.90;35.10
2751;DHT22;1383;48.362;10.908;2022-10-30T12:49:24;21.90;34.50
2751;DHT22;1383;48.362;10.908;2022-10-30T12:51:59;22.00;34.80
2751;DHT22;1383;48.362;10.908;2022-10-30T12:57:11;22.10;34.60
2751;DHT22;1383;48.362;10.908;2022-10-30T13:05:36;22.20;34.80
2751;DHT22;1383;48.362;10.908;2022-10-30T13:13:40;22.20;34.20
2751;DHT22;1383;48.362;10.908;2022-10-30T13:16:16;22.20;34.30
2751;DHT22;1383;48.362;10.908;2022-10-30T13:18:44;22.20;34.50
2751;DHT22;1383;48.362;10.908;2022-10-30T13:21:23;22.10;34.20
2751;DHT22;1383;48.362;10.908;2022-10-30T13:24:07;22.10;34.10
2751;DHT22;1383;48.362;10.908;2022-10-30T13:26:55;22.10;33.70
2751;DHT22;1383;48.362;10.908;2022-10-30T13:29:43;22.00;34.00
2751;DHT22;1383;48.362;10.908;2022-10-30T13:35:33;22.20;32.90
2751;DHT22;1383;48.362;10.908;2022-10-30T13:52:33;22.20;33.20
2751;DHT22;1383;48.362;10.908;2022-10-30T13:54:41;22.20;33.40
2751;DHT22;1383;48.362;10.908;2022-10-30T13:57:27;22.10;33.30
2751;DHT22;1383;48.362;10.908;2022-10-30T13:59:57;22.10;34.10
2751;DHT22;1383;48.362;10.908;2022-10-30T14:03:10;22.10;37.70
2751;DHT22;1383;48.362;10.908;2022-10-30T14:05:46;22.10;39.20
2751;DHT22;1383;48.362;10.908;2022-10-30T14:08:35;22.10;39.00
2751;DHT22;1383;48.362;10.908;2022-10-30T14:11:09;22.10;39.40
2751;DHT22;1383;48.362;10.908;2022-10-30T14:16:40;22.10;38.80
2751;DHT22;1383;48.362;10.908;2022-10-30T14:24:25;22.00;39.30
2751;DHT22;1383;48.362;10.908;2022-10-30T14:26:54;22.00;39.60
2751;DHT22;1383;48.362;10.908;2022-10-30T14:39:54;21.80;40.00
2751;DHT22;1383;48.362;10.908;2022-10-30T14:42:36;21.70;40.40
2751;DHT22;1383;48.362;10.908;2022-10-30T14:58:35;21.70;40.60
2751;DHT22;1383;48.362;10.908;2022-10-30T15:03:32;21.70;40.60
2751;DHT22;1383;48.362;10.908;2022-10-30T15:14:32;21.50;40.40
2751;DHT22;1383;48.362;10.908;2022-10-30T15:19:50;21.40;39.90
2751;DHT22;1383;48.362;10.908;2022-10-30T15:22:19;21.40;39.60
2751;DHT22;1383;48.362;10.908;2022-10-30T15:24:48;21.40;39.30
2751;DHT22;1383;48.362;10.908;2022-10-30T15:27:21;21.30;38.70
2751;DHT22;1383;48.362;10.908;2022-10-30T15:29:54;21.30;38.70
2751;DHT22;1383;48.362;10.908;2022-10-30T15:32:23;21.20;38.70
2751;DHT22;1383;48.362;10.908;2022-10-30T15:34:59;21.10;38.90
2751;DHT22;1383;48.362;10.908;2022-10-30T15:37:27;21.10;39.20
2751;DHT22;1383;48.362;10.908;2022-10-30T15:40:15;21.00;39.10
2751;DHT22;1383;48.362;10.908;2022-10-30T15:42:42;20.90;39.50
2751;DHT22;1383;48.362;10.908;2022-10-30T15:45:18;20.90;40.00
2751;DHT22;1383;48.362;10.908;2022-10-30T15:47:56;20.90;41.80
2751;DHT22;1383;48.362;10.908;2022-10-30T15:50:25;20.80;43.00
2751;DHT22;1383;48.362;10.908;2022-10-30T15:52:52;20.70;43.90
2751;DHT22;1383;48.362;10.908;2022-10-30T15:55:25;20.70;44.30
2751;DHT22;1383;48.362;10.908;2022-10-30T15:57:56;20.70;44.30
2751;DHT22;1383;48.362;10.908;2022-10-30T16:00:35;20.60;44.70
2751;DHT22;1383;48.362;10.908;2022-10-30T16:05:38;20.40;45.10
2751;DHT22;1383;48.362;10.908;2022-10-30T16:08:22;20.30;45.90
2751;DHT22;1383;48.362;10.908;2022-10-30T16:10:52;20.20;46.30
2751;DHT22;1383;48.362;10.908;2022-10-30T16:13:30;20.10;46.80
2751;DHT22;1383;48.362;10.908;2022-10-30T16:15:57;20.00;48.10
2751;DHT22;1383;48.362;10.908;2022-10-30T16:18:27;19.90;47.40
2751;DHT22;1383;48.362;10.908;2022-10-30T16:21:00;19.80;47.90
2751;DHT22;1383;48.362;10.908;2022-10-30T16:23:57;19.80;48.90
2751;DHT22;1383;48.362;10.908;2022-10-30T16:26:35;19.70;49.80
2751;DHT22;1383;48.362;10.908;2022-10-30T16:29:23;19.50;51.20
2751;DHT22;1383;48.362;10.908;2022-10-30T16:31:51;19.50;51.80
2751;DHT22;1383;48.362;10.908;2022-10-30T16:34:25;19.30;52.40
2751;DHT22;1383;48.362;10.908;2022-10-30T16:36:57;19.20;53.10
2751;DHT22;1383;48.362;10.908;2022-10-30T16:39:25;19.00;54.40
2751;DHT22;1383;48.362;10.908;2022-10-30T16:41:56;18.90;55.10
2751;DHT22;1383;48.362;10.908;2022-10-30T16:44:42;18.80;55.40
2751;DHT22;1383;48.362;10.908;2022-10-30T16:47:21;18.80;54.80
2751;DHT22;1383;48.362;10.908;2022-10-30T16:49:55;18.50;57.00
2751;DHT22;1383;48.362;10.908;2022-10-30T16:52:26;18.40;58.10
2751;DHT22;1383;48.362;10.908;2022-10-30T16:55:04;18.20;59.40
2751;DHT22;1383;48.362;10.908;2022-10-30T16:57:41;18.10;59.90
2751;DHT22;1383;48.362;10.908;2022-10-30T17:00:35;18.00;60.40
2751;DHT22;1383;48.362;10.908;2022-10-30T17:03:07;18.00;60.20
2751;DHT22;1383;48.362;10.908;2022-10-30T17:05:36;17.90;60.60
2751;DHT22;1383;48.362;10.908;2022-10-30T17:08:28;17.80;61.40
2751;DHT22;1383;48.362;10.908;2022-10-30T17:11:01;17.80;61.20
2751;DHT22;1383;48.362;10.908;2022-10-30T17:13:29;17.80;61.30
2751;DHT22;1383;48.362;10.908;2022-10-30T17:18:51;17.70;61.80
2751;DHT22;1383;48.362;10.908;2022-10-30T17:21:37;17.60;62.60
2751;DHT22;1383;48.362;10.908;2022-10-30T17:24:15;17.50;62.70
2751;DHT22;1383;48.362;10.908;2022-10-30T17:26:54;17.30;63.80
2751;DHT22;1383;48.362;10.908;2022-10-30T17:32:04;17.00;66.30
2751;DHT22;1383;48.362;10.908;2022-10-30T17:34:37;16.80;67.30
2751;DHT22;1383;48.362;10.908;2022-10-30T17:37:04;16.70;68.40
2751;DHT22;1383;48.362;10.908;2022-10-30T17:39:31;16.70;68.90
2751;DHT22;1383;48.362;10.908;2022-10-30T17:41:57;16.70;68.50
2751;DHT22;1383;48.362;10.908;2022-10-30T17:44:25;16.70;68.30
2751;DHT22;1383;48.362;10.908;2022-10-30T17:46:52;16.70;68.00
2751;DHT22;1383;48.362;10.908;2022-10-30T17:49:28;16.70;68.20
2751;DHT22;1383;48.362;10.908;2022-10-30T17:51:55;16.70;68.80
2751;DHT22;1383;48.362;10.908;2022-10-30T17:54:22;16.60;69.60
2751;DHT22;1383;48.362;10.908;2022-10-30T17:56:50;16.50;70.70
2751;DHT22;1383;48.362;10.908;2022-10-30T17:59:17;16.40;71.30
2751;DHT22;1383;48.362;10.908;2022-10-30T18:01:43;16.40;71.30
2751;DHT22;1383;48.362;10.908;2022-10-30T18:04:13;16.40;71.30
2751;DHT22;1383;48.362;10.908;2022-10-30T18:06:47;16.40;71.40
2751;DHT22;1383;48.362;10.908;2022-10-30T18:09:14;16.30;71.40
2751;DHT22;1383;48.362;10.908;2022-10-30T18:11:41;16.20;72.50
2751;DHT22;1383;48.362;10.908;2022-10-30T18:14:09;16.00;73.90
2751;DHT22;1383;48.362;10.908;2022-10-30T18:16:36;16.00;74.20
2751;DHT22;1383;48.362;10.908;2022-10-30T18:19:07;15.90;74.80
2751;DHT22;1383;48.362;10.908;2022-10-30T18:21:34;15.80;75.60
2751;DHT22;1383;48.362;10.908;2022-10-30T18:24:01;15.80;76.10
2751;DHT22;1383;48.362;10.908;2022-10-30T18:26:28;15.80;76.20
2751;DHT22;1383;48.362;10.908;2022-10-30T18:28:55;15.80;75.90
2751;DHT22;1383;48.362;10.908;2022-10-30T18:31:24;15.70;76.30
2751;DHT22;1383;48.362;10.908;2022-10-30T18:33:51;15.60;77.10
2751;DHT22;1383;48.362;10.908;2022-10-30T18:36:22;15.60;77.30
2751;DHT22;1383;48.362;10.908;2022-10-30T18:38:50;15.50;78.30
2751;DHT22;1383;48.362;10.908;2022-10-30T18:41:35;15.40;78.40